Time;durP1;ratioP1;P1;durP2;ratioP2;P2;SDS_P1;SDS_P2;PMS_P1;PMS_P2;Temp;Humidity;BMP_temperature;BMP_pressure;BME280_temperature;BME280_humidity;BME280_pressure;Samples;Min_cycle;Max_cycle;Signal;HPM_P1;HPM_P2
2022/01/10 00:04:01;;;;;;;6.00;2.20;;;;;;;;;;10458816;28;20311;-84
2022/01/10 00:09:05;;;;;;;5.87;2.20;;;;;;;;;;10423083;28;20049;-84
2022/01/10 00:14:08;;;;;;;8.57;1.47;;;;;;;;;;10417378;28;20041;-84
2022/01/10 00:19:12;;;;;;;2.90;1.37;;;;;;;;;;10436939;28;20030;-82
2022/01/10 00:24:16;;;;;;;3.80;2.03;;;;;;;;;;10423533;28;20945;-82
2022/01/10 00:29:19;;;;;;;5.17;2.40;;;;;;;;;;10416114;28;20040;-84
2022/01/10 00:34:23;;;;;;;4.33;2.53;;;;;;;;;;10407926;28;20485;-81
2022/01/10 00:39:26;;;;;;;;;;;;;;;;;;10395832;28;20045;-84
2022/01/10 00:44:31;;;;;;;4.77;2.20;;;;;;;;;;10401778;28;19928;-80
2022/01/10 00:49:36;;;;;;;2.10;1.40;;;;;;;;;;10429952;28;20029;-83
2022/01/10 00:54:39;;;;;;;2.47;1.10;;;;;;;;;;10414700;28;20557;-82
2022/01/10 00:59:42;;;;;;;6.63;2.25;;;;;;;;;;10414340;28;20041;-83
2022/01/10 01:04:47;;;;;;;1.03;0.83;;;;;;;;;;10411625;28;20038;-82
2022/01/10 01:10:00;;;;;;;;;;;;;;;;;;10418628;28;20038;-83
2022/01/10 01:15:18;;;;;;;5.33;1.40;;;;;;;;;;10430819;28;19963;-83
2022/01/10 01:20:31;;;;;;;4.47;1.80;;;;;;;;;;10400767;28;20052;-80
2022/01/10 01:25:34;;;;;;;4.93;2.60;;;;;;;;;;10422267;28;20080;-80
2022/01/10 01:30:37;;;;;;;6.60;2.50;;;;;;;;;;10400927;28;20446;-80
2022/01/10 01:35:41;;;;;;;6.60;2.47;;;;;;;;;;10433321;28;20033;-80
2022/01/10 01:40:51;;;;;;;5.97;2.37;;;;;;;;;;10404179;28;20041;-81
2022/01/10 01:45:54;;;;;;;6.10;2.50;;;;;;;;;;10420081;28;20094;-81
2022/01/10 01:50:58;;;;;;;10.73;2.77;;;;;;;;;;10422344;28;20026;-79
2022/01/10 01:56:01;;;;;;;;;;;;;;;;;;10410552;28;20044;-81
2022/01/10 02:01:04;;;;;;;6.47;1.73;;;;;;;;;;10395615;28;20460;-81
2022/01/10 02:06:09;;;;;;;7.03;2.13;;;;;;;;;;10411944;28;20148;-81
2022/01/10 02:11:13;;;;;;;9.23;2.33;;;;;;;;;;10415722;28;20792;-82
2022/01/10 02:16:22;;;;;;;5.00;2.17;;;;;;;;;;10435363;28;20029;-80
2022/01/10 02:21:28;;;;;;;7.67;2.83;;;;;;;;;;10442418;28;20037;-85
2022/01/10 02:26:31;;;;;;;4.40;1.87;;;;;;;;;;10411059;28;20061;-81
2022/01/10 02:31:35;;;;;;;8.37;3.33;;;;;;;;;;10430307;28;20044;-82
2022/01/10 02:36:39;;;;;;;4.30;1.85;;;;;;;;;;10404336;28;20053;-82
2022/01/10 02:41:44;;;;;;;9.10;2.73;;;;;;;;;;10424934;28;20059;-82
2022/01/10 02:46:47;;;;;;;4.67;1.93;;;;;;;;;;10422368;28;20045;-81
2022/01/10 02:51:52;;;;;;;5.70;1.83;;;;;;;;;;10399226;28;20048;-82
2022/01/10 02:56:57;;;;;;;8.93;2.43;;;;;;;;;;10418961;28;20060;-82
2022/01/10 03:02:00;;;;;;;6.27;2.83;;;;;;;;;;10403542;28;20069;-82
2022/01/10 03:07:07;;;;;;;8.83;2.70;;;;;;;;;;10441270;28;20094;-85
2022/01/10 03:12:11;;;;;;;4.30;2.23;;;;;;;;;;10441551;28;20034;-81
2022/01/10 03:17:14;;;;;;;7.87;2.73;;;;;;;;;;10421986;28;20188;-79
2022/01/10 03:22:19;;;;;;;8.93;2.63;;;;;;;;;;10402448;28;20064;-80
2022/01/10 03:27:22;;;;;;;;;;;;;;;;;;10420956;28;20029;-81
2022/01/10 03:32:25;;;;;;;4.43;1.97;;;;;;;;;;10398785;28;20490;-83
2022/01/10 03:37:30;;;;;;;8.43;2.43;;;;;;;;;;10403079;28;20653;-80
2022/01/10 03:42:32;;;;;;;;;;;;;;;;;;10417822;28;20295;-81
2022/01/10 03:47:35;;;;;;;2.30;1.43;;;;;;;;;;10399899;28;19931;-80
2022/01/10 03:52:41;;;;;;;2.87;1.47;;;;;;;;;;10399115;28;20038;-81
2022/01/10 03:57:44;;;;;;;6.73;3.10;;;;;;;;;;10418021;28;20097;-81
2022/01/10 04:02:53;;;;;;;5.17;2.50;;;;;;;;;;10425669;28;20026;-81
2022/01/10 04:07:57;;;;;;;7.20;2.67;;;;;;;;;;10446498;28;20673;-80
2022/01/10 04:13:01;;;;;;;3.77;2.80;;;;;;;;;;10401080;28;20555;-80
2022/01/10 04:18:04;;;;;;;8.77;3.47;;;;;;;;;;10429466;28;20010;-81
2022/01/10 04:23:08;;;;;;;7.17;3.00;;;;;;;;;;10395576;28;20030;-81
2022/01/10 04:28:11;;;;;;;8.97;3.70;;;;;;;;;;10416640;28;20042;-81
2022/01/10 04:33:17;;;;;;;6.85;2.28;;;;;;;;;;10438781;28;20025;-83
2022/01/10 04:38:22;;;;;;;4.27;2.70;;;;;;;;;;10459939;28;20025;-83
2022/01/10 04:43:25;;;;;;;8.03;2.97;;;;;;;;;;10429774;28;20037;-83
2022/01/10 04:48:34;;;;;;;7.03;2.83;;;;;;;;;;10440640;28;20040;-82
2022/01/10 04:53:38;;;;;;;5.83;2.83;;;;;;;;;;10416948;28;20091;-81
2022/01/10 04:58:42;;;;;;;7.50;3.30;;;;;;;;;;10442078;28;20075;-81
2022/01/10 05:03:45;;;;;;;6.93;3.13;;;;;;;;;;10441687;28;20037;-82
2022/01/10 05:08:50;;;;;;;6.93;3.10;;;;;;;;;;10413385;28;20041;-80
2022/01/10 05:13:52;;;;;;;;;;;;;;;;;;10413479;28;20110;-83
2022/01/10 05:18:55;;;;;;;7.43;3.30;;;;;;;;;;10428416;22;19927;-75
2022/01/10 05:23:59;;;;;;;8.80;3.10;;;;;;;;;;10428713;28;20073;-76
2022/01/10 05:29:02;;;;;;;;;;;;;;;;;;10428884;28;20375;-73
2022/01/10 05:34:05;;;;;;;2.90;1.13;;;;;;;;;;10449104;28;19921;-76
2022/01/10 05:39:10;;;;;;;4.23;1.83;;;;;;;;;;10431817;28;20132;-75
2022/01/10 05:44:12;;;;;;;5.77;2.73;;;;;;;;;;10427123;28;20150;-74
2022/01/10 05:49:18;;;;;;;11.20;3.90;;;;;;;;;;10429247;28;20037;-73
2022/01/10 05:54:22;;;;;;;9.97;3.87;;;;;;;;;;10427242;28;20041;-74
2022/01/10 05:59:25;;;;;;;13.93;3.83;;;;;;;;;;10425007;28;20048;-76
2022/01/10 06:04:30;;;;;;;11.57;4.30;;;;;;;;;;10424260;28;20618;-74
2022/01/10 06:09:35;;;;;;;13.50;4.10;;;;;;;;;;10444068;28;20092;-75
2022/01/10 06:14:37;;;;;;;14.53;4.93;;;;;;;;;;10425587;28;20473;-75
2022/01/10 06:19:40;;;;;;;11.13;4.83;;;;;;;;;;10429459;28;20063;-74
2022/01/10 06:24:45;;;;;;;11.40;4.60;;;;;;;;;;10463595;28;20036;-74
2022/01/10 06:29:48;;;;;;;;;;;;;;;;;;10442931;28;20311;-76
2022/01/10 06:34:51;;;;;;;8.17;4.20;;;;;;;;;;10429831;28;19969;-75
2022/01/10 06:39:55;;;;;;;13.73;4.53;;;;;;;;;;10442341;28;20029;-76
2022/01/10 06:44:58;;;;;;;;;;;;;;;;;;10425832;28;20037;-76
2022/01/10 06:50:01;;;;;;;15.10;5.60;;;;;;;;;;10426847;28;20000;-75
2022/01/10 06:55:06;;;;;;;12.93;5.20;;;;;;;;;;10447660;28;20065;-75
2022/01/10 07:00:10;;;;;;;4.23;2.43;;;;;;;;;;10437719;28;20094;-75
2022/01/10 07:05:13;;;;;;;12.20;4.00;;;;;;;;;;10442612;28;20552;-76
2022/01/10 07:10:17;;;;;;;12.37;5.03;;;;;;;;;;10424399;28;20056;-76
2022/01/10 07:15:20;;;;;;;;;;;;;;;;;;10418368;28;20041;-74
2022/01/10 07:20:23;;;;;;;10.83;4.33;;;;;;;;;;10442441;28;20556;-75
2022/01/10 07:25:29;;;;;;;15.82;5.65;;;;;;;;;;10423820;28;20045;-75
2022/01/10 07:30:32;;;;;;;10.57;3.97;;;;;;;;;;10422623;28;20096;-75
2022/01/10 07:35:35;;;;;;;7.53;2.93;;;;;;;;;;10424378;28;20478;-75
2022/01/10 07:40:41;;;;;;;16.07;5.63;;;;;;;;;;10417752;28;20468;-74
2022/01/10 07:45:44;;;;;;;8.93;2.40;;;;;;;;;;10436261;28;20500;-75
2022/01/10 07:50:47;;;;;;;8.10;3.13;;;;;;;;;;10419104;28;20067;-75
2022/01/10 07:55:51;;;;;;;13.33;4.90;;;;;;;;;;10439700;28;20041;-75
2022/01/10 08:00:54;;;;;;;15.60;3.63;;;;;;;;;;10442308;28;20041;-76
2022/01/10 08:05:58;;;;;;;11.27;4.77;;;;;;;;;;10422562;28;20110;-74
2022/01/10 08:11:02;;;;;;;14.00;4.57;;;;;;;;;;10421417;28;20067;-75
2022/01/10 08:16:05;;;;;;;11.50;4.77;;;;;;;;;;10426070;28;20049;-75
2022/01/10 08:21:08;;;;;;;7.30;2.72;;;;;;;;;;10429480;28;20108;-74
2022/01/10 08:26:13;;;;;;;5.93;2.43;;;;;;;;;;10447363;28;20033;-75
2022/01/10 08:31:15;;;;;;;;;;;;;;;;;;10446919;28;20128;-75
2022/01/10 08:36:18;;;;;;;12.57;4.20;;;;;;;;;;10447544;28;19920;-75
2022/01/10 08:41:23;;;;;;;18.87;6.03;;;;;;;;;;10426466;28;20029;-76
2022/01/10 08:46:26;;;;;;;16.87;5.40;;;;;;;;;;10423230;28;20615;-74
2022/01/10 08:51:30;;;;;;;8.63;3.57;;;;;;;;;;10429087;28;20511;-75
2022/01/10 08:56:34;;;;;;;12.48;4.25;;;;;;;;;;10448815;28;20108;-74
2022/01/10 09:01:37;;;;;;;13.93;5.40;;;;;;;;;;10424190;28;20063;-75
2022/01/10 09:06:40;;;;;;;14.13;5.55;;;;;;;;;;10428008;28;20040;-75
2022/01/10 09:11:45;;;;;;;12.03;5.10;;;;;;;;;;10467352;28;20057;-74
2022/01/10 09:16:48;;;;;;;16.23;5.73;;;;;;;;;;10456153;28;20394;-75
2022/01/10 09:21:51;;;;;;;10.73;4.63;;;;;;;;;;10426158;28;20033;-74
2022/01/10 09:26:58;;;;;;;11.80;4.40;;;;;;;;;;10451690;28;20591;-74
2022/01/10 09:32:01;;;;;;;10.40;4.33;;;;;;;;;;10461961;28;20045;-75
2022/01/10 09:37:04;;;;;;;15.20;5.07;;;;;;;;;;10443371;28;20045;-75
2022/01/10 09:42:09;;;;;;;15.63;5.20;;;;;;;;;;10431981;28;20419;-75
2022/01/10 09:47:13;;;;;;;18.43;5.77;;;;;;;;;;10441684;28;20380;-75
2022/01/10 09:52:16;;;;;;;13.70;5.37;;;;;;;;;;10445438;28;20405;-76
2022/01/10 09:57:20;;;;;;;14.10;4.10;;;;;;;;;;10425787;28;20040;-75
2022/01/10 10:02:30;;;;;;;11.67;4.80;;;;;;;;;;10424417;28;20669;-75
2022/01/10 10:07:33;;;;;;;20.87;5.77;;;;;;;;;;10425914;28;20128;-75
2022/01/10 10:12:38;;;;;;;14.60;5.17;;;;;;;;;;10425191;28;20405;-75
2022/01/10 10:17:42;;;;;;;15.68;5.82;;;;;;;;;;10427485;28;20060;-74
2022/01/10 10:22:46;;;;;;;17.98;6.90;;;;;;;;;;10418406;28;20040;-74
2022/01/10 10:27:50;;;;;;;15.07;5.25;;;;;;;;;;10442326;28;20390;-74
2022/01/10 10:32:53;;;;;;;10.93;4.03;;;;;;;;;;10444599;28;20033;-73
2022/01/10 10:37:56;;;;;;;18.45;4.72;;;;;;;;;;10427230;28;20041;-74
2022/01/10 10:43:00;;;;;;;12.80;4.20;;;;;;;;;;10420839;28;20044;-74
2022/01/10 10:48:07;;;;;;;16.73;5.82;;;;;;;;;;10436977;28;20102;-75
2022/01/10 10:53:13;;;;;;;16.13;6.00;;;;;;;;;;10435318;28;20099;-75
2022/01/10 10:58:17;;;;;;;15.23;5.53;;;;;;;;;;10421075;28;20037;-75
2022/01/10 11:03:21;;;;;;;;;;;;;;;;;;10424407;28;20170;-73
2022/01/10 11:08:24;;;;;;;8.63;3.10;;;;;;;;;;10438299;28;20329;-75
2022/01/10 11:13:30;;;;;;;12.80;4.33;;;;;;;;;;10421630;28;20037;-73
2022/01/10 11:18:34;;;;;;;10.80;3.00;;;;;;;;;;10457969;22;20091;-70
2022/01/10 11:23:40;;;;;;;12.17;3.97;;;;;;;;;;10437890;28;20508;-70
2022/01/10 11:28:49;;;;;;;13.93;5.53;;;;;;;;;;10418725;28;20047;-71
2022/01/10 11:33:53;;;;;;;12.73;4.90;;;;;;;;;;10490092;22;20046;-75
2022/01/10 11:38:56;;;;;;;14.27;4.90;;;;;;;;;;10529330;28;20028;-74
2022/01/10 11:44:04;;;;;;;17.33;5.97;;;;;;;;;;10508443;28;20146;-75
2022/01/10 11:49:16;;;;;;;10.30;4.40;;;;;;;;;;10512874;28;20691;-76
2022/01/10 11:54:22;;;;;;;17.37;5.40;;;;;;;;;;10512731;28;20055;-75
2022/01/10 11:59:27;;;;;;;16.17;5.37;;;;;;;;;;10514450;28;20082;-76
2022/01/10 12:04:31;;;;;;;5.93;2.60;;;;;;;;;;10512412;28;20115;-74
2022/01/10 12:09:34;;;;;;;15.80;6.03;;;;;;;;;;10509544;28;20412;-75
2022/01/10 12:14:43;;;;;;;17.73;5.83;;;;;;;;;;10507435;28;20056;-75
2022/01/10 12:19:46;;;;;;;15.83;5.60;;;;;;;;;;10505192;28;20086;-75
2022/01/10 12:24:50;;;;;;;10.43;3.43;;;;;;;;;;10496827;28;20048;-76
2022/01/10 12:29:54;;;;;;;25.25;6.88;;;;;;;;;;10505639;28;20179;-76
2022/01/10 12:34:57;;;;;;;9.23;2.40;;;;;;;;;;10505725;28;20440;-75
2022/01/10 12:40:00;;;;;;;10.50;4.03;;;;;;;;;;10506736;28;20044;-75
2022/01/10 12:45:07;;;;;;;18.53;6.33;;;;;;;;;;10514018;28;20067;-75
2022/01/10 12:50:10;;;;;;;11.27;4.23;;;;;;;;;;10509007;28;20136;-75
2022/01/10 12:55:13;;;;;;;21.17;5.43;;;;;;;;;;10505695;28;20047;-74
2022/01/10 13:00:17;;;;;;;15.10;5.77;;;;;;;;;;10514519;28;20301;-74
2022/01/10 13:05:21;;;;;;;15.43;5.43;;;;;;;;;;10529528;28;20040;-75
2022/01/10 13:10:31;;;;;;;9.95;3.63;;;;;;;;;;10518877;28;20089;-77
2022/01/10 13:15:38;;;;;;;17.53;5.70;;;;;;;;;;10531294;28;20132;-77
2022/01/10 13:20:43;;;;;;;4.67;2.37;;;;;;;;;;10513564;28;20477;-75
2022/01/10 13:25:46;;;;;;;7.63;3.17;;;;;;;;;;10516726;28;20032;-74
2022/01/10 13:30:52;;;;;;;2.97;1.87;;;;;;;;;;10534159;28;20102;-75
2022/01/10 13:35:56;;;;;;;7.80;3.73;;;;;;;;;;10513011;28;20040;-76
2022/01/10 13:41:09;;;;;;;8.73;3.67;;;;;;;;;;10517977;28;20063;-74
2022/01/10 13:46:19;;;;;;;19.60;6.13;;;;;;;;;;10514829;28;20029;-75
2022/01/10 13:51:23;;;;;;;9.07;3.83;;;;;;;;;;10518066;28;20112;-75
2022/01/10 13:56:28;;;;;;;16.00;4.35;;;;;;;;;;10523650;28;20117;-75
2022/01/10 14:01:35;;;;;;;18.13;4.63;;;;;;;;;;10523801;28;20040;-74
2022/01/10 14:06:39;;;;;;;6.47;1.73;;;;;;;;;;10527341;28;20058;-75
2022/01/10 14:11:42;;;;;;;8.73;3.77;;;;;;;;;;10514205;28;20054;-74
2022/01/10 14:16:49;;;;;;;9.93;3.70;;;;;;;;;;10533765;28;20102;-76
2022/01/10 14:21:52;;;;;;;7.30;3.17;;;;;;;;;;10509784;28;20654;-75
2022/01/10 14:26:55;;;;;;;11.63;4.93;;;;;;;;;;10511925;28;20060;-74
2022/01/10 14:32:00;;;;;;;9.83;3.57;;;;;;;;;;10536816;28;20064;-75
2022/01/10 14:37:03;;;;;;;8.03;3.97;;;;;;;;;;10529225;28;20342;-74
2022/01/10 14:42:06;;;;;;;8.53;3.50;;;;;;;;;;10513053;28;20040;-74
2022/01/10 14:47:10;;;;;;;5.90;2.10;;;;;;;;;;10527279;28;21510;-74
2022/01/10 14:52:13;;;;;;;7.10;2.57;;;;;;;;;;10531938;28;20409;-73
2022/01/10 14:57:17;;;;;;;11.20;3.03;;;;;;;;;;10510515;28;20109;-75
2022/01/10 15:02:21;;;;;;;8.15;2.80;;;;;;;;;;10513300;28;20369;-75
2022/01/10 15:07:24;;;;;;;4.60;2.23;;;;;;;;;;10522417;28;20548;-74
2022/01/10 15:12:27;;;;;;;6.63;2.90;;;;;;;;;;10510141;28;20068;-75
2022/01/10 15:17:32;;;;;;;6.00;1.97;;;;;;;;;;10514309;28;20040;-76
2022/01/10 15:22:35;;;;;;;14.43;5.60;;;;;;;;;;10509414;28;20060;-76
2022/01/10 15:27:38;;;;;;;8.17;3.20;;;;;;;;;;10510799;28;20036;-75
2022/01/10 15:32:42;;;;;;;5.17;2.63;;;;;;;;;;10509684;28;20547;-74
2022/01/10 15:37:45;;;;;;;;;;;;;;;;;;10511433;28;20124;-75
2022/01/10 15:42:47;;;;;;;8.63;3.33;;;;;;;;;;10511343;28;19928;-76
2022/01/10 15:47:52;;;;;;;17.70;5.17;;;;;;;;;;10516393;28;20105;-75
2022/01/10 15:52:55;;;;;;;7.33;2.53;;;;;;;;;;10508849;28;20044;-76
2022/01/10 15:57:58;;;;;;;10.07;4.00;;;;;;;;;;10507624;28;20040;-75
2022/01/10 16:03:02;;;;;;;21.52;7.68;;;;;;;;;;10510003;28;20068;-74
2022/01/10 16:08:06;;;;;;;17.93;6.67;;;;;;;;;;10506176;28;20092;-75
2022/01/10 16:13:08;;;;;;;10.03;3.90;;;;;;;;;;10508323;28;20404;-75
2022/01/10 16:18:13;;;;;;;14.90;4.87;;;;;;;;;;10512164;28;20398;-76
2022/01/10 16:23:16;;;;;;;18.07;5.93;;;;;;;;;;10507479;28;20094;-76
2022/01/10 16:28:19;;;;;;;11.80;4.43;;;;;;;;;;10503945;28;20047;-75
2022/01/10 16:33:24;;;;;;;13.65;4.45;;;;;;;;;;10504444;28;20041;-75
2022/01/10 16:38:27;;;;;;;8.80;3.67;;;;;;;;;;10542167;28;20547;-75
2022/01/10 16:43:32;;;;;;;4.37;1.63;;;;;;;;;;10522706;28;20117;-75
2022/01/10 16:48:38;;;;;;;8.20;4.07;;;;;;;;;;10513988;28;20124;-75
2022/01/10 16:53:41;;;;;;;5.70;3.60;;;;;;;;;;10518725;28;20036;-75
2022/01/10 16:58:44;;;;;;;7.17;2.13;;;;;;;;;;10514982;28;20379;-75
2022/01/10 17:03:48;;;;;;;10.07;4.43;;;;;;;;;;10516311;28;20040;-75
2022/01/10 17:08:52;;;;;;;18.07;6.13;;;;;;;;;;10511881;28;20064;-76
2022/01/10 17:13:55;;;;;;;6.32;2.70;;;;;;;;;;10518889;28;20055;-76
2022/01/10 17:19:00;;;;;;;10.73;3.17;;;;;;;;;;10507061;28;20039;-74
2022/01/10 17:24:14;;;;;;;6.77;2.10;;;;;;;;;;10512345;28;20472;-73
2022/01/10 17:29:20;;;;;;;2.00;0.97;;;;;;;;;;10511168;28;20090;-74
2022/01/10 17:34:24;;;;;;;12.60;3.83;;;;;;;;;;10478702;22;20064;-70
2022/01/10 17:39:27;;;;;;;;;;;;;;;;;;10439870;28;20513;-71
2022/01/10 17:44:29;;;;;;;13.97;5.10;;;;;;;;;;10430281;28;19970;-69
2022/01/10 17:49:39;;;;;;;3.20;1.77;;;;;;;;;;10435411;28;20450;-69
2022/01/10 17:54:43;;;;;;;14.27;4.63;;;;;;;;;;10428477;28;20041;-67
2022/01/10 17:59:46;;;;;;;13.03;4.73;;;;;;;;;;10429406;28;20424;-68
2022/01/10 18:04:50;;;;;;;10.17;3.80;;;;;;;;;;10433077;28;20036;-69
2022/01/10 18:09:53;;;;;;;11.77;4.73;;;;;;;;;;10429798;28;20040;-70
2022/01/10 18:14:56;;;;;;;2.63;1.20;;;;;;;;;;10432967;28;20041;-71
2022/01/10 18:20:00;;;;;;;14.90;4.73;;;;;;;;;;10426475;28;20045;-69
2022/01/10 18:25:04;;;;;;;6.97;2.97;;;;;;;;;;10426741;28;20039;-69
2022/01/10 18:30:07;;;;;;;;;;;;;;;;;;10434906;28;20071;-69
2022/01/10 18:35:12;;;;;;;9.57;3.57;;;;;;;;;;10443220;28;19925;-68
2022/01/10 18:40:16;;;;;;;18.03;4.00;;;;;;;;;;10439681;28;20037;-69
2022/01/10 18:45:20;;;;;;;5.20;2.50;;;;;;;;;;10443262;28;20110;-68
2022/01/10 18:50:23;;;;;;;;;;;;;;;;;;10429735;28;20164;-70
2022/01/10 18:55:28;;;;;;;13.63;4.20;;;;;;;;;;10434589;28;19920;-70
2022/01/10 19:00:31;;;;;;;12.87;4.50;;;;;;;;;;10428914;28;20443;-69
2022/01/10 19:05:34;;;;;;;18.55;5.22;;;;;;;;;;10425986;28;20064;-69
2022/01/10 19:10:39;;;;;;;8.57;2.93;;;;;;;;;;10431793;28;20163;-70
2022/01/10 19:15:41;;;;;;;15.57;4.60;;;;;;;;;;10430772;28;20032;-70
2022/01/10 19:20:45;;;;;;;11.87;2.13;;;;;;;;;;10430718;28;20037;-70
2022/01/10 19:25:50;;;;;;;7.70;3.37;;;;;;;;;;10432566;28;20029;-66
2022/01/10 19:30:53;;;;;;;20.83;7.40;;;;;;;;;;10438338;28;20517;-68
2022/01/10 19:35:58;;;;;;;13.30;3.42;;;;;;;;;;10432815;28;20029;-71
2022/01/10 19:41:03;;;;;;;7.33;3.13;;;;;;;;;;10434060;28;20056;-71
2022/01/10 19:46:07;;;;;;;9.53;3.83;;;;;;;;;;10439031;28;20101;-69
2022/01/10 19:51:10;;;;;;;15.03;4.63;;;;;;;;;;10440144;28;20040;-71
2022/01/10 19:56:14;;;;;;;14.87;4.37;;;;;;;;;;10469053;28;20029;-70
2022/01/10 20:01:17;;;;;;;6.00;2.87;;;;;;;;;;10468296;28;20052;-71
2022/01/10 20:06:21;;;;;;;11.57;4.28;;;;;;;;;;10463586;28;20817;-70
2022/01/10 20:11:26;;;;;;;10.73;4.53;;;;;;;;;;10437010;28;20033;-69
2022/01/10 20:16:28;;;;;;;;;;;;;;;;;;10445267;28;20616;-68
2022/01/10 20:21:33;;;;;;;7.23;2.67;;;;;;;;;;10444814;28;19920;-71
2022/01/10 20:26:38;;;;;;;12.47;4.47;;;;;;;;;;10440828;28;20037;-70
2022/01/10 20:31:42;;;;;;;14.73;4.53;;;;;;;;;;10443361;28;20053;-69
2022/01/10 20:36:45;;;;;;;12.63;4.07;;;;;;;;;;10445670;28;20035;-70
2022/01/10 20:41:50;;;;;;;11.85;3.95;;;;;;;;;;10444327;28;20065;-69
2022/01/10 20:46:53;;;;;;;;;;;;;;;;;;10440553;28;20071;-69
2022/01/10 20:51:56;;;;;;;4.77;2.37;;;;;;;;;;10450426;28;19935;-69
2022/01/10 20:57:02;;;;;;;10.40;3.77;;;;;;;;;;10437643;28;20047;-70
2022/01/10 21:02:05;;;;;;;10.33;3.43;;;;;;;;;;10444085;28;20060;-70
2022/01/10 21:07:09;;;;;;;13.63;4.70;;;;;;;;;;10443446;28;20029;-70
2022/01/10 21:12:14;;;;;;;11.27;4.28;;;;;;;;;;10441850;28;20029;-69
2022/01/10 21:17:17;;;;;;;15.70;5.37;;;;;;;;;;10442035;28;20029;-69
2022/01/10 21:22:21;;;;;;;14.80;5.05;;;;;;;;;;10451084;28;20052;-70
2022/01/10 21:27:28;;;;;;;11.02;4.28;;;;;;;;;;10442015;28;20036;-71
2022/01/10 21:32:31;;;;;;;15.03;4.50;;;;;;;;;;10447393;28;20068;-71
2022/01/10 21:37:35;;;;;;;11.53;4.17;;;;;;;;;;10439191;28;20425;-69
2022/01/10 21:42:40;;;;;;;13.65;5.22;;;;;;;;;;10446391;28;20057;-70
2022/01/10 21:47:43;;;;;;;15.57;5.10;;;;;;;;;;10471561;28;20097;-70
2022/01/10 21:52:48;;;;;;;12.25;4.88;;;;;;;;;;10477938;28;20045;-71
2022/01/10 21:57:54;;;;;;;8.93;3.27;;;;;;;;;;10465887;28;20121;-69
2022/01/10 22:02:57;;;;;;;5.93;1.90;;;;;;;;;;10464509;28;20056;-71
2022/01/10 22:08:01;;;;;;;18.33;6.00;;;;;;;;;;10467176;28;20276;-70
2022/01/10 22:13:05;;;;;;;13.37;5.17;;;;;;;;;;10476647;28;20035;-70
2022/01/10 22:18:08;;;;;;;;;;;;;;;;;;10455706;28;20119;-71
2022/01/10 22:23:11;;;;;;;11.27;4.20;;;;;;;;;;10432259;28;19950;-70
2022/01/10 22:28:16;;;;;;;13.07;5.53;;;;;;;;;;10430755;28;20145;-71
2022/01/10 22:33:19;;;;;;;10.97;4.07;;;;;;;;;;10434687;28;20124;-70
2022/01/10 22:38:23;;;;;;;15.73;5.07;;;;;;;;;;10437658;28;20159;-67
2022/01/10 22:43:27;;;;;;;17.10;4.78;;;;;;;;;;10438581;28;20045;-71
2022/01/10 22:48:32;;;;;;;17.47;5.47;;;;;;;;;;10438844;28;20124;-70
2022/01/10 22:53:36;;;;;;;14.03;5.10;;;;;;;;;;10437154;28;20390;-71
2022/01/10 22:58:41;;;;;;;16.67;5.57;;;;;;;;;;10431183;28;20033;-71
2022/01/10 23:03:44;;;;;;;15.27;5.00;;;;;;;;;;10434575;28;20513;-71
2022/01/10 23:08:49;;;;;;;10.77;4.32;;;;;;;;;;10433902;28;20033;-69
2022/01/10 23:13:54;;;;;;;11.53;4.83;;;;;;;;;;10435142;28;20527;-71
2022/01/10 23:18:57;;;;;;;9.47;4.27;;;;;;;;;;10435177;28;20044;-71
2022/01/10 23:24:00;;;;;;;20.23;5.10;;;;;;;;;;10433235;28;20033;-71
2022/01/10 23:29:05;;;;;;;13.93;5.30;;;;;;;;;;10424939;28;20033;-69
2022/01/10 23:34:10;;;;;;;14.03;5.23;;;;;;;;;;10438756;28;20037;-71
2022/01/10 23:39:14;;;;;;;11.60;5.10;;;;;;;;;;10434356;28;20536;-70
2022/01/10 23:44:19;;;;;;;12.07;4.60;;;;;;;;;;10436503;28;20049;-71
2022/01/10 23:49:22;;;;;;;7.70;3.53;;;;;;;;;;10432851;28;20152;-70
2022/01/10 23:54:25;;;;;;;7.33;3.70;;;;;;;;;;10441374;28;20048;-71
2022/01/10 23:59:29;;;;;;;7.57;3.37;;;;;;;;;;10428062;28;20029;-70
